sensor_id;sensor_type;location;lat;lon;timestamp;pressure;altitude;pressure_sealevel;temperature;humidity
34065;BME280;20339;49.754;20.158;2022-11-09T00:02:02;96774.59;;;8.79;72.61
34065;BME280;20339;49.754;20.158;2022-11-09T00:04:35;96781.36;;;8.86;72.41
34065;BME280;20339;49.754;20.158;2022-11-09T00:07:09;96782.74;;;8.85;72.11
34065;BME280;20339;49.754;20.158;2022-11-09T00:09:40;96784.32;;;8.79;72.23
34065;BME280;20339;49.754;20.158;2022-11-09T00:12:11;96775.86;;;8.75;72.38
34065;BME280;20339;49.754;20.158;2022-11-09T00:14:42;96780.25;;;8.75;72.43
34065;BME280;20339;49.754;20.158;2022-11-09T00:17:13;96778.17;;;8.73;72.38
34065;BME280;20339;49.754;20.158;2022-11-09T00:19:47;96782.97;;;8.65;72.29
34065;BME280;20339;49.754;20.158;2022-11-09T00:22:18;96782.41;;;8.57;72.52
34065;BME280;20339;49.754;20.158;2022-11-09T00:24:49;96776.30;;;8.59;73.02
34065;BME280;20339;49.754;20.158;2022-11-09T00:27:20;96777.11;;;8.63;72.83
34065;BME280;20339;49.754;20.158;2022-11-09T00:29:51;96778.35;;;8.58;72.99
34065;BME280;20339;49.754;20.158;2022-11-09T00:32:23;96781.11;;;8.59;73.19
34065;BME280;20339;49.754;20.158;2022-11-09T00:34:54;96780.73;;;8.55;72.99
34065;BME280;20339;49.754;20.158;2022-11-09T00:37:25;96779.61;;;8.51;73.25
34065;BME280;20339;49.754;20.158;2022-11-09T00:39:59;96780.51;;;8.50;73.22
34065;BME280;20339;49.754;20.158;2022-11-09T00:42:30;96783.45;;;8.44;73.21
34065;BME280;20339;49.754;20.158;2022-11-09T00:45:01;96785.06;;;8.41;73.30
34065;BME280;20339;49.754;20.158;2022-11-09T00:47:32;96786.43;;;8.37;73.20
34065;BME280;20339;49.754;20.158;2022-11-09T00:50:04;96781.30;;;8.35;73.43
34065;BME280;20339;49.754;20.158;2022-11-09T00:52:36;96783.00;;;8.41;73.77
34065;BME280;20339;49.754;20.158;2022-11-09T00:55:08;96782.80;;;8.42;73.73
34065;BME280;20339;49.754;20.158;2022-11-09T00:57:39;96777.77;;;8.39;73.59
34065;BME280;20339;49.754;20.158;2022-11-09T01:00:16;96783.14;;;8.34;73.61
34065;BME280;20339;49.754;20.158;2022-11-09T01:02:48;96784.05;;;8.30;73.68
34065;BME280;20339;49.754;20.158;2022-11-09T01:05:20;96779.81;;;8.28;73.70
34065;BME280;20339;49.754;20.158;2022-11-09T01:07:51;96778.80;;;8.26;73.95
34065;BME280;20339;49.754;20.158;2022-11-09T01:10:22;96774.20;;;8.25;74.06
34065;BME280;20339;49.754;20.158;2022-11-09T01:12:53;96775.70;;;8.28;74.35
34065;BME280;20339;49.754;20.158;2022-11-09T01:15:24;96778.02;;;8.29;74.15
34065;BME280;20339;49.754;20.158;2022-11-09T01:17:56;96771.47;;;8.26;74.22
34065;BME280;20339;49.754;20.158;2022-11-09T01:20:27;96773.80;;;8.28;74.36
34065;BME280;20339;49.754;20.158;2022-11-09T01:22:58;96769.45;;;8.24;74.03
34065;BME280;20339;49.754;20.158;2022-11-09T01:25:29;96764.80;;;8.24;74.39
34065;BME280;20339;49.754;20.158;2022-11-09T01:28:01;96764.20;;;8.31;74.71
34065;BME280;20339;49.754;20.158;2022-11-09T01:30:33;96770.73;;;8.35;74.53
34065;BME280;20339;49.754;20.158;2022-11-09T01:33:06;96761.55;;;8.38;74.55
34065;BME280;20339;49.754;20.158;2022-11-09T01:35:39;96758.11;;;8.39;74.56
34065;BME280;20339;49.754;20.158;2022-11-09T01:38:13;96764.03;;;8.37;74.42
34065;BME280;20339;49.754;20.158;2022-11-09T01:40:44;96762.64;;;8.34;74.54
34065;BME280;20339;49.754;20.158;2022-11-09T01:43:20;96760.58;;;8.33;74.70
34065;BME280;20339;49.754;20.158;2022-11-09T01:45:54;96761.98;;;8.37;74.69
34065;BME280;20339;49.754;20.158;2022-11-09T01:48:33;96761.71;;;8.39;74.60
34065;BME280;20339;49.754;20.158;2022-11-09T01:51:11;96756.67;;;8.33;74.62
34065;BME280;20339;49.754;20.158;2022-11-09T01:53:46;96759.58;;;8.26;74.60
34065;BME280;20339;49.754;20.158;2022-11-09T01:56:21;96755.04;;;8.22;74.70
34065;BME280;20339;49.754;20.158;2022-11-09T01:58:55;96754.60;;;8.19;74.80
34065;BME280;20339;49.754;20.158;2022-11-09T02:01:28;96752.77;;;8.15;74.85
34065;BME280;20339;49.754;20.158;2022-11-09T02:04:04;96751.77;;;8.13;75.07
34065;BME280;20339;49.754;20.158;2022-11-09T02:06:37;96746.70;;;8.11;75.13
34065;BME280;20339;49.754;20.158;2022-11-09T02:09:21;96751.08;;;8.09;75.14
34065;BME280;20339;49.754;20.158;2022-11-09T02:11:53;96756.40;;;8.06;75.35
34065;BME280;20339;49.754;20.158;2022-11-09T02:14:26;96749.11;;;8.06;75.79
34065;BME280;20339;49.754;20.158;2022-11-09T02:16:59;96748.32;;;8.06;75.62
34065;BME280;20339;49.754;20.158;2022-11-09T02:19:30;96741.44;;;8.02;75.86
34065;BME280;20339;49.754;20.158;2022-11-09T02:22:04;96743.88;;;8.05;75.83
34065;BME280;20339;49.754;20.158;2022-11-09T02:24:35;96737.20;;;8.01;75.86
34065;BME280;20339;49.754;20.158;2022-11-09T02:27:07;96737.77;;;7.95;76.04
34065;BME280;20339;49.754;20.158;2022-11-09T02:29:40;96732.59;;;7.92;76.18
34065;BME280;20339;49.754;20.158;2022-11-09T02:32:18;96730.73;;;7.92;76.34
34065;BME280;20339;49.754;20.158;2022-11-09T02:34:50;96728.38;;;7.93;76.62
34065;BME280;20339;49.754;20.158;2022-11-09T02:37:30;96722.03;;;7.94;76.59
34065;BME280;20339;49.754;20.158;2022-11-09T02:40:05;96724.45;;;7.92;76.69
34065;BME280;20339;49.754;20.158;2022-11-09T02:42:37;96722.06;;;7.89;76.62
34065;BME280;20339;49.754;20.158;2022-11-09T02:45:10;96719.45;;;7.83;76.64
34065;BME280;20339;49.754;20.158;2022-11-09T02:47:44;96720.10;;;7.75;76.81
34065;BME280;20339;49.754;20.158;2022-11-09T02:50:15;96720.13;;;7.73;76.90
34065;BME280;20339;49.754;20.158;2022-11-09T02:52:47;96725.20;;;7.73;77.07
34065;BME280;20339;49.754;20.158;2022-11-09T02:55:18;96721.92;;;7.73;77.18
34065;BME280;20339;49.754;20.158;2022-11-09T02:57:49;96725.65;;;7.76;77.16
34065;BME280;20339;49.754;20.158;2022-11-09T03:00:22;96730.31;;;7.71;77.11
34065;BME280;20339;49.754;20.158;2022-11-09T03:02:54;96736.59;;;7.72;77.20
34065;BME280;20339;49.754;20.158;2022-11-09T03:05:25;96731.25;;;7.76;77.29
34065;BME280;20339;49.754;20.158;2022-11-09T03:07:56;96736.27;;;7.79;77.37
34065;BME280;20339;49.754;20.158;2022-11-09T03:10:31;96740.87;;;7.79;77.01
34065;BME280;20339;49.754;20.158;2022-11-09T03:13:02;96738.96;;;7.80;77.29
34065;BME280;20339;49.754;20.158;2022-11-09T03:15:33;96741.55;;;7.80;77.00
34065;BME280;20339;49.754;20.158;2022-11-09T03:18:07;96746.72;;;7.77;76.88
34065;BME280;20339;49.754;20.158;2022-11-09T03:20:38;96746.05;;;7.73;76.86
34065;BME280;20339;49.754;20.158;2022-11-09T03:23:09;96749.20;;;7.72;76.88
34065;BME280;20339;49.754;20.158;2022-11-09T03:25:40;96741.61;;;7.72;76.93
34065;BME280;20339;49.754;20.158;2022-11-09T03:28:12;96740.56;;;7.73;77.07
34065;BME280;20339;49.754;20.158;2022-11-09T03:30:45;96742.23;;;7.76;77.04
34065;BME280;20339;49.754;20.158;2022-11-09T03:33:17;96742.70;;;7.77;76.81
34065;BME280;20339;49.754;20.158;2022-11-09T03:35:48;96736.90;;;7.76;77.12
34065;BME280;20339;49.754;20.158;2022-11-09T03:38:19;96736.91;;;7.79;77.19
34065;BME280;20339;49.754;20.158;2022-11-09T03:40:51;96737.01;;;7.79;76.94
34065;BME280;20339;49.754;20.158;2022-11-09T03:43:22;96737.76;;;7.80;77.12
34065;BME280;20339;49.754;20.158;2022-11-09T03:45:53;96730.36;;;7.80;77.08
34065;BME280;20339;49.754;20.158;2022-11-09T03:48:24;96731.32;;;7.84;77.27
34065;BME280;20339;49.754;20.158;2022-11-09T03:50:56;96728.31;;;7.85;77.17
34065;BME280;20339;49.754;20.158;2022-11-09T03:53:27;96723.77;;;7.84;76.97
34065;BME280;20339;49.754;20.158;2022-11-09T03:55:59;96723.19;;;7.81;76.97
34065;BME280;20339;49.754;20.158;2022-11-09T03:58:31;96723.76;;;7.77;77.16
34065;BME280;20339;49.754;20.158;2022-11-09T04:01:02;96726.98;;;7.76;77.15
34065;BME280;20339;49.754;20.158;2022-11-09T04:03:33;96718.51;;;7.74;77.08
34065;BME280;20339;49.754;20.158;2022-11-09T04:06:04;96719.96;;;7.71;77.15
34065;BME280;20339;49.754;20.158;2022-11-09T04:08:35;96714.36;;;7.69;77.23
34065;BME280;20339;49.754;20.158;2022-11-09T04:11:07;96713.63;;;7.68;77.47
34065;BME280;20339;49.754;20.158;2022-11-09T04:13:38;96718.06;;;7.67;77.60
34065;BME280;20339;49.754;20.158;2022-11-09T04:16:10;96716.73;;;7.66;77.59
34065;BME280;20339;49.754;20.158;2022-11-09T04:18:41;96717.31;;;7.63;77.86
34065;BME280;20339;49.754;20.158;2022-11-09T04:21:13;96705.75;;;7.61;77.97
34065;BME280;20339;49.754;20.158;2022-11-09T04:23:48;96712.71;;;7.57;78.21
34065;BME280;20339;49.754;20.158;2022-11-09T04:26:20;96715.40;;;7.55;78.38
34065;BME280;20339;49.754;20.158;2022-11-09T04:28:51;96717.35;;;7.54;78.45
34065;BME280;20339;49.754;20.158;2022-11-09T04:31:23;96723.05;;;7.53;78.59
34065;BME280;20339;49.754;20.158;2022-11-09T04:33:54;96725.81;;;7.58;78.88
34065;BME280;20339;49.754;20.158;2022-11-09T04:36:25;96719.67;;;7.63;78.83
34065;BME280;20339;49.754;20.158;2022-11-09T04:38:57;96726.51;;;7.68;78.80
34065;BME280;20339;49.754;20.158;2022-11-09T04:41:29;96723.30;;;7.72;78.67
34065;BME280;20339;49.754;20.158;2022-11-09T04:44:00;96718.27;;;7.72;78.45
34065;BME280;20339;49.754;20.158;2022-11-09T04:46:31;96724.73;;;7.76;78.55
34065;BME280;20339;49.754;20.158;2022-11-09T04:49:02;96725.66;;;7.80;78.35
34065;BME280;20339;49.754;20.158;2022-11-09T04:51:33;96722.35;;;7.82;78.43
34065;BME280;20339;49.754;20.158;2022-11-09T04:54:04;96724.61;;;7.82;78.15
34065;BME280;20339;49.754;20.158;2022-11-09T04:56:36;96722.71;;;7.83;78.09
34065;BME280;20339;49.754;20.158;2022-11-09T04:59:07;96724.46;;;7.84;77.95
34065;BME280;20339;49.754;20.158;2022-11-09T05:01:38;96722.90;;;7.76;77.79
34065;BME280;20339;49.754;20.158;2022-11-09T05:04:09;96719.06;;;7.66;77.84
34065;BME280;20339;49.754;20.158;2022-11-09T05:06:40;96714.05;;;7.60;78.01
34065;BME280;20339;49.754;20.158;2022-11-09T05:09:12;96714.98;;;7.56;78.21
34065;BME280;20339;49.754;20.158;2022-11-09T05:11:44;96712.55;;;7.54;78.26
34065;BME280;20339;49.754;20.158;2022-11-09T05:14:15;96715.39;;;7.51;78.33
34065;BME280;20339;49.754;20.158;2022-11-09T05:16:47;96712.79;;;7.48;78.39
34065;BME280;20339;49.754;20.158;2022-11-09T05:19:18;96707.34;;;7.46;78.67
34065;BME280;20339;49.754;20.158;2022-11-09T05:21:51;96707.38;;;7.45;78.70
34065;BME280;20339;49.754;20.158;2022-11-09T05:24:23;96708.20;;;7.43;78.78
34065;BME280;20339;49.754;20.158;2022-11-09T05:26:55;96704.73;;;7.44;78.75
34065;BME280;20339;49.754;20.158;2022-11-09T05:29:26;96701.41;;;7.44;78.95
34065;BME280;20339;49.754;20.158;2022-11-09T05:31:58;96692.48;;;7.43;78.97
34065;BME280;20339;49.754;20.158;2022-11-09T05:34:29;96699.58;;;7.45;79.12
34065;BME280;20339;49.754;20.158;2022-11-09T05:37:00;96694.54;;;7.47;79.13
34065;BME280;20339;49.754;20.158;2022-11-09T05:39:32;96698.45;;;7.47;79.22
34065;BME280;20339;49.754;20.158;2022-11-09T05:42:03;96689.17;;;7.53;79.22
34065;BME280;20339;49.754;20.158;2022-11-09T05:44:35;96691.68;;;7.59;79.37
34065;BME280;20339;49.754;20.158;2022-11-09T05:47:06;96689.71;;;7.65;79.24
34065;BME280;20339;49.754;20.158;2022-11-09T05:49:41;96691.27;;;7.73;79.15
34065;BME280;20339;49.754;20.158;2022-11-09T05:52:12;96692.14;;;7.79;79.10
34065;BME280;20339;49.754;20.158;2022-11-09T05:54:43;96693.20;;;7.80;78.83
34065;BME280;20339;49.754;20.158;2022-11-09T05:57:15;96688.40;;;7.82;78.71
34065;BME280;20339;49.754;20.158;2022-11-09T05:59:51;96695.84;;;7.83;78.71
34065;BME280;20339;49.754;20.158;2022-11-09T06:02:23;96687.44;;;7.91;78.59
34065;BME280;20339;49.754;20.158;2022-11-09T06:04:55;96692.86;;;8.02;78.47
34065;BME280;20339;49.754;20.158;2022-11-09T06:07:26;96687.09;;;8.14;78.27
34065;BME280;20339;49.754;20.158;2022-11-09T06:09:57;96686.40;;;8.33;77.92
34065;BME280;20339;49.754;20.158;2022-11-09T06:12:33;96675.89;;;8.61;77.57
34065;BME280;20339;49.754;20.158;2022-11-09T06:15:06;96682.92;;;8.92;76.73
34065;BME280;20339;49.754;20.158;2022-11-09T06:17:38;96682.42;;;9.15;75.72
34065;BME280;20339;49.754;20.158;2022-11-09T06:20:10;96685.31;;;9.30;75.02
34065;BME280;20339;49.754;20.158;2022-11-09T06:22:41;96690.70;;;9.39;74.42
34065;BME280;20339;49.754;20.158;2022-11-09T06:25:13;96695.15;;;9.51;73.72
34065;BME280;20339;49.754;20.158;2022-11-09T06:27:44;96702.30;;;9.68;73.36
34065;BME280;20339;49.754;20.158;2022-11-09T06:30:16;96707.27;;;9.86;72.66
34065;BME280;20339;49.754;20.158;2022-11-09T06:32:47;96706.98;;;10.04;72.15
34065;BME280;20339;49.754;20.158;2022-11-09T06:35:21;96703.21;;;10.24;71.53
34065;BME280;20339;49.754;20.158;2022-11-09T06:37:57;96695.30;;;10.44;70.82
34065;BME280;20339;49.754;20.158;2022-11-09T06:40:29;96697.51;;;10.63;70.16
34065;BME280;20339;49.754;20.158;2022-11-09T06:43:04;96703.06;;;10.80;69.36
34065;BME280;20339;49.754;20.158;2022-11-09T06:45:35;96703.14;;;10.92;68.89
34065;BME280;20339;49.754;20.158;2022-11-09T06:48:08;96710.04;;;11.11;68.12
34065;BME280;20339;49.754;20.158;2022-11-09T06:50:40;96707.74;;;11.25;66.95
34065;BME280;20339;49.754;20.158;2022-11-09T06:53:12;96703.44;;;11.31;66.79
34065;BME280;20339;49.754;20.158;2022-11-09T06:55:44;96707.04;;;11.42;66.44
34065;BME280;20339;49.754;20.158;2022-11-09T06:58:15;96696.26;;;11.52;65.86
34065;BME280;20339;49.754;20.158;2022-11-09T07:00:48;96708.63;;;11.33;65.41
34065;BME280;20339;49.754;20.158;2022-11-09T07:03:21;96709.52;;;11.34;65.88
34065;BME280;20339;49.754;20.158;2022-11-09T07:05:53;96710.74;;;11.55;65.41
34065;BME280;20339;49.754;20.158;2022-11-09T07:08:26;96700.05;;;11.67;65.11
34065;BME280;20339;49.754;20.158;2022-11-09T07:11:03;96702.86;;;11.84;64.31
34065;BME280;20339;49.754;20.158;2022-11-09T07:13:34;96704.86;;;11.90;63.93
34065;BME280;20339;49.754;20.158;2022-11-09T07:16:07;96708.94;;;12.04;63.26
34065;BME280;20339;49.754;20.158;2022-11-09T07:18:40;96699.73;;;12.10;62.56
34065;BME280;20339;49.754;20.158;2022-11-09T07:21:11;96696.33;;;12.14;61.91
34065;BME280;20339;49.754;20.158;2022-11-09T07:23:43;96693.24;;;12.18;61.68
34065;BME280;20339;49.754;20.158;2022-11-09T07:26:17;96696.95;;;12.27;61.84
34065;BME280;20339;49.754;20.158;2022-11-09T07:28:48;96689.86;;;12.40;61.31
34065;BME280;20339;49.754;20.158;2022-11-09T07:31:21;96702.77;;;12.60;61.28
34065;BME280;20339;49.754;20.158;2022-11-09T07:33:58;96698.38;;;12.76;60.49
34065;BME280;20339;49.754;20.158;2022-11-09T07:36:33;96708.20;;;12.80;60.35
34065;BME280;20339;49.754;20.158;2022-11-09T07:39:05;96703.63;;;12.94;59.95
34065;BME280;20339;49.754;20.158;2022-11-09T07:41:37;96713.98;;;12.99;59.21
34065;BME280;20339;49.754;20.158;2022-11-09T07:44:08;96707.27;;;13.12;59.20
34065;BME280;20339;49.754;20.158;2022-11-09T07:46:43;96707.09;;;12.90;58.29
34065;BME280;20339;49.754;20.158;2022-11-09T07:49:14;96713.73;;;12.63;58.87
34065;BME280;20339;49.754;20.158;2022-11-09T07:51:46;96719.95;;;12.85;59.77
34065;BME280;20339;49.754;20.158;2022-11-09T07:54:17;96714.92;;;13.27;59.28
34065;BME280;20339;49.754;20.158;2022-11-09T07:56:49;96713.44;;;13.51;58.28
34065;BME280;20339;49.754;20.158;2022-11-09T07:59:20;96717.12;;;13.48;57.98
34065;BME280;20339;49.754;20.158;2022-11-09T08:01:51;96717.21;;;13.67;58.01
34065;BME280;20339;49.754;20.158;2022-11-09T08:04:25;96716.73;;;13.84;57.44
34065;BME280;20339;49.754;20.158;2022-11-09T08:06:56;96711.41;;;13.83;56.97
34065;BME280;20339;49.754;20.158;2022-11-09T08:09:28;96716.95;;;13.87;57.62
34065;BME280;20339;49.754;20.158;2022-11-09T08:12:02;96716.44;;;14.28;57.76
34065;BME280;20339;49.754;20.158;2022-11-09T08:14:34;96714.29;;;14.50;57.39
34065;BME280;20339;49.754;20.158;2022-11-09T08:17:06;96711.06;;;14.35;56.65
34065;BME280;20339;49.754;20.158;2022-11-09T08:19:37;96716.85;;;14.21;56.78
34065;BME280;20339;49.754;20.158;2022-11-09T08:22:08;96718.33;;;13.87;57.02
34065;BME280;20339;49.754;20.158;2022-11-09T08:24:42;96713.77;;;13.51;57.33
34065;BME280;20339;49.754;20.158;2022-11-09T08:27:13;96713.58;;;13.18;57.35
34065;BME280;20339;49.754;20.158;2022-11-09T08:29:45;96712.20;;;12.80;58.61
34065;BME280;20339;49.754;20.158;2022-11-09T08:32:16;96708.95;;;12.43;59.07
34065;BME280;20339;49.754;20.158;2022-11-09T08:34:49;96715.09;;;12.09;59.89
34065;BME280;20339;49.754;20.158;2022-11-09T08:37:20;96711.45;;;11.83;60.99
34065;BME280;20339;49.754;20.158;2022-11-09T08:39:51;96710.17;;;11.67;61.85
34065;BME280;20339;49.754;20.158;2022-11-09T08:42:23;96710.22;;;11.60;62.30
34065;BME280;20339;49.754;20.158;2022-11-09T08:44:54;96705.02;;;11.52;63.02
34065;BME280;20339;49.754;20.158;2022-11-09T08:47:25;96704.31;;;11.49;63.41
34065;BME280;20339;49.754;20.158;2022-11-09T08:49:59;96697.67;;;11.45;63.80
34065;BME280;20339;49.754;20.158;2022-11-09T08:52:30;96696.31;;;11.37;64.15
34065;BME280;20339;49.754;20.158;2022-11-09T08:55:02;96697.13;;;11.30;64.43
34065;BME280;20339;49.754;20.158;2022-11-09T08:57:34;96690.13;;;11.29;64.72
34065;BME280;20339;49.754;20.158;2022-11-09T09:00:07;96697.77;;;11.34;65.03
34065;BME280;20339;49.754;20.158;2022-11-09T09:02:38;96703.77;;;11.39;64.92
34065;BME280;20339;49.754;20.158;2022-11-09T09:05:10;96693.01;;;11.39;64.89
34065;BME280;20339;49.754;20.158;2022-11-09T09:07:41;96698.15;;;11.40;65.13
34065;BME280;20339;49.754;20.158;2022-11-09T09:10:12;96690.11;;;11.47;65.36
34065;BME280;20339;49.754;20.158;2022-11-09T09:12:44;96697.25;;;11.53;65.26
34065;BME280;20339;49.754;20.158;2022-11-09T09:15:15;96703.59;;;11.58;65.09
34065;BME280;20339;49.754;20.158;2022-11-09T09:17:47;96702.67;;;11.64;65.01
34065;BME280;20339;49.754;20.158;2022-11-09T09:20:18;96713.23;;;11.75;64.97
34065;BME280;20339;49.754;20.158;2022-11-09T09:22:49;96705.06;;;11.82;64.88
34065;BME280;20339;49.754;20.158;2022-11-09T09:25:20;96713.52;;;11.86;64.96
34065;BME280;20339;49.754;20.158;2022-11-09T09:27:51;96701.08;;;11.86;64.85
34065;BME280;20339;49.754;20.158;2022-11-09T09:30:23;96707.88;;;11.81;64.90
34065;BME280;20339;49.754;20.158;2022-11-09T09:32:59;96701.75;;;11.83;65.30
34065;BME280;20339;49.754;20.158;2022-11-09T09:35:30;96695.05;;;11.92;65.19
34065;BME280;20339;49.754;20.158;2022-11-09T09:38:02;96705.36;;;11.97;64.92
34065;BME280;20339;49.754;20.158;2022-11-09T09:40:37;96680.27;;;11.99;65.19
34065;BME280;20339;49.754;20.158;2022-11-09T09:43:18;96685.06;;;12.09;65.62
34065;BME280;20339;49.754;20.158;2022-11-09T09:45:54;96682.96;;;12.27;65.35
34065;BME280;20339;49.754;20.158;2022-11-09T09:48:30;96677.30;;;12.30;64.80
34065;BME280;20339;49.754;20.158;2022-11-09T09:51:07;96677.62;;;12.26;64.70
34065;BME280;20339;49.754;20.158;2022-11-09T09:53:47;96672.95;;;12.26;64.71
34065;BME280;20339;49.754;20.158;2022-11-09T09:56:22;96672.80;;;12.32;64.66
34065;BME280;20339;49.754;20.158;2022-11-09T09:59:00;96666.11;;;12.46;65.08
34065;BME280;20339;49.754;20.158;2022-11-09T10:01:38;96665.55;;;12.62;64.58
34065;BME280;20339;49.754;20.158;2022-11-09T10:04:16;96659.33;;;12.62;63.68
34065;BME280;20339;49.754;20.158;2022-11-09T10:06:56;96659.11;;;12.56;63.94
34065;BME280;20339;49.754;20.158;2022-11-09T10:09:44;96645.86;;;12.60;63.62
34065;BME280;20339;49.754;20.158;2022-11-09T10:12:24;96660.80;;;12.63;63.94
34065;BME280;20339;49.754;20.158;2022-11-09T10:15:10;96655.73;;;12.67;63.39
34065;BME280;20339;49.754;20.158;2022-11-09T10:17:50;96664.47;;;12.66;63.51
34065;BME280;20339;49.754;20.158;2022-11-09T10:20:33;96665.14;;;12.72;63.62
34065;BME280;20339;49.754;20.158;2022-11-09T10:23:16;96664.31;;;12.73;63.40
34065;BME280;20339;49.754;20.158;2022-11-09T10:25:56;96660.60;;;12.66;63.38
34065;BME280;20339;49.754;20.158;2022-11-09T10:28:30;96656.56;;;12.59;63.68
34065;BME280;20339;49.754;20.158;2022-11-09T10:31:04;96660.61;;;12.58;63.75
34065;BME280;20339;49.754;20.158;2022-11-09T10:33:50;96652.50;;;12.57;63.68
34065;BME280;20339;49.754;20.158;2022-11-09T10:36:29;96654.03;;;12.55;63.94
34065;BME280;20339;49.754;20.158;2022-11-09T10:39:02;96651.80;;;12.61;64.00
34065;BME280;20339;49.754;20.158;2022-11-09T10:41:36;96646.35;;;12.65;64.06
34065;BME280;20339;49.754;20.158;2022-11-09T10:44:14;96650.19;;;12.75;63.93
34065;BME280;20339;49.754;20.158;2022-11-09T10:47:09;96653.72;;;12.77;63.50
34065;BME280;20339;49.754;20.158;2022-11-09T10:49:41;96653.50;;;12.74;63.51
34065;BME280;20339;49.754;20.158;2022-11-09T10:52:30;96658.48;;;12.75;63.56
34065;BME280;20339;49.754;20.158;2022-11-09T10:55:23;96664.02;;;12.82;63.94
34065;BME280;20339;49.754;20.158;2022-11-09T10:57:58;96659.41;;;13.00;64.08
34065;BME280;20339;49.754;20.158;2022-11-09T11:00:30;96662.16;;;13.07;63.47
34065;BME280;20339;49.754;20.158;2022-11-09T11:03:12;96669.41;;;13.00;63.27
34065;BME280;20339;49.754;20.158;2022-11-09T11:05:57;96660.17;;;13.00;63.22
34065;BME280;20339;49.754;20.158;2022-11-09T11:08:40;96661.35;;;13.02;63.62
34065;BME280;20339;49.754;20.158;2022-11-09T11:11:21;96656.83;;;13.02;63.44
34065;BME280;20339;49.754;20.158;2022-11-09T11:14:12;96654.25;;;13.03;63.45
34065;BME280;20339;49.754;20.158;2022-11-09T11:16:44;96654.63;;;13.05;63.42
34065;BME280;20339;49.754;20.158;2022-11-09T11:19:41;96647.97;;;13.09;63.26
34065;BME280;20339;49.754;20.158;2022-11-09T11:22:20;96649.15;;;13.19;63.48
34065;BME280;20339;49.754;20.158;2022-11-09T11:24:55;96651.27;;;13.30;63.30
34065;BME280;20339;49.754;20.158;2022-11-09T11:27:33;96646.95;;;13.35;63.14
34065;BME280;20339;49.754;20.158;2022-11-09T11:30:12;96648.53;;;13.39;62.47
34065;BME280;20339;49.754;20.158;2022-11-09T11:32:44;96645.91;;;13.33;62.53
34065;BME280;20339;49.754;20.158;2022-11-09T11:35:27;96644.09;;;13.31;62.75
34065;BME280;20339;49.754;20.158;2022-11-09T11:38:08;96642.51;;;13.36;62.80
34065;BME280;20339;49.754;20.158;2022-11-09T11:40:49;96641.65;;;13.51;62.38
34065;BME280;20339;49.754;20.158;2022-11-09T11:43:32;96642.32;;;13.63;62.35
34065;BME280;20339;49.754;20.158;2022-11-09T11:46:26;96647.20;;;13.77;61.77
34065;BME280;20339;49.754;20.158;2022-11-09T11:49:18;96644.96;;;13.90;61.28
34065;BME280;20339;49.754;20.158;2022-11-09T11:51:58;96645.11;;;13.97;60.74
34065;BME280;20339;49.754;20.158;2022-11-09T11:54:39;96645.96;;;14.02;60.95
34065;BME280;20339;49.754;20.158;2022-11-09T11:57:22;96647.61;;;14.01;60.42
34065;BME280;20339;49.754;20.158;2022-11-09T12:00:10;96651.45;;;13.96;60.64
34065;BME280;20339;49.754;20.158;2022-11-09T12:06:18;96646.67;;;14.01;60.52
34065;BME280;20339;49.754;20.158;2022-11-09T12:09:06;96638.66;;;14.06;60.74
34065;BME280;20339;49.754;20.158;2022-11-09T12:11:52;96640.00;;;14.16;60.63
34065;BME280;20339;49.754;20.158;2022-11-09T12:14:31;96645.01;;;14.18;60.63
34065;BME280;20339;49.754;20.158;2022-11-09T12:17:15;96646.61;;;14.18;60.34
34065;BME280;20339;49.754;20.158;2022-11-09T12:20:02;96647.71;;;14.22;60.68
34065;BME280;20339;49.754;20.158;2022-11-09T12:22:45;96643.33;;;14.25;60.35
34065;BME280;20339;49.754;20.158;2022-11-09T12:25:23;96642.09;;;14.23;60.56
34065;BME280;20339;49.754;20.158;2022-11-09T12:28:18;96639.36;;;14.21;60.07
34065;BME280;20339;49.754;20.158;2022-11-09T12:31:02;96641.59;;;14.10;59.84
34065;BME280;20339;49.754;20.158;2022-11-09T12:33:42;96634.52;;;14.09;60.12
34065;BME280;20339;49.754;20.158;2022-11-09T12:36:18;96638.65;;;14.14;60.29
34065;BME280;20339;49.754;20.158;2022-11-09T12:38:57;96632.66;;;14.19;60.15
34065;BME280;20339;49.754;20.158;2022-11-09T12:41:34;96629.66;;;14.28;60.40
34065;BME280;20339;49.754;20.158;2022-11-09T12:44:12;96626.08;;;14.36;60.48
34065;BME280;20339;49.754;20.158;2022-11-09T12:46:47;96623.99;;;14.46;60.48
34065;BME280;20339;49.754;20.158;2022-11-09T12:49:34;96627.98;;;14.45;59.99
34065;BME280;20339;49.754;20.158;2022-11-09T12:52:14;96626.56;;;14.48;60.19
34065;BME280;20339;49.754;20.158;2022-11-09T12:54:48;96632.52;;;14.48;59.90
34065;BME280;20339;49.754;20.158;2022-11-09T12:57:23;96629.01;;;14.48;60.13
34065;BME280;20339;49.754;20.158;2022-11-09T12:59:57;96628.23;;;14.42;59.51
34065;BME280;20339;49.754;20.158;2022-11-09T13:02:32;96627.65;;;14.37;59.72
34065;BME280;20339;49.754;20.158;2022-11-09T13:05:07;96627.71;;;14.41;59.92
34065;BME280;20339;49.754;20.158;2022-11-09T13:07:59;96629.02;;;14.45;58.96
34065;BME280;20339;49.754;20.158;2022-11-09T13:10:33;96634.86;;;14.47;58.46
34065;BME280;20339;49.754;20.158;2022-11-09T13:13:19;96631.01;;;14.50;57.89
34065;BME280;20339;49.754;20.158;2022-11-09T13:16:29;96639.00;;;14.52;57.88
34065;BME280;20339;49.754;20.158;2022-11-09T13:19:01;96637.73;;;14.53;57.43
34065;BME280;20339;49.754;20.158;2022-11-09T13:21:35;96641.77;;;14.55;57.61
34065;BME280;20339;49.754;20.158;2022-11-09T13:27:39;96651.56;;;14.63;57.97
34065;BME280;20339;49.754;20.158;2022-11-09T13:33:23;96666.52;;;14.72;58.36
34065;BME280;20339;49.754;20.158;2022-11-09T13:38:45;96665.95;;;14.49;57.34
34065;BME280;20339;49.754;20.158;2022-11-09T13:41:46;96670.52;;;14.46;57.69
34065;BME280;20339;49.754;20.158;2022-11-09T13:44:24;96666.39;;;14.41;57.59
34065;BME280;20339;49.754;20.158;2022-11-09T13:46:56;96669.40;;;14.40;57.73